Time;durP1;ratioP1;P1;durP2;ratioP2;P2;SDS_P1;SDS_P2;PMS_P1;PMS_P2;Temp;Humidity;BMP_temperature;BMP_pressure;BME280_temperature;BME280_humidity;BME280_pressure;Samples;Min_cycle;Max_cycle;Signal;HPM_P1;HPM_P2
2023/01/10 00:09:05;;;;;;;;;;;;;;;6.85;93.34;100992.56;21035334;28;19932;-61
2023/01/10 00:19:26;;;;;;;;;;;;;;;6.92;94.02;101013.91;21023447;28;19932;-61
2023/01/10 00:29:51;;;;;;;;;;;;;;;6.87;93.57;101037.09;20999415;28;19924;-61
2023/01/10 00:40:12;;;;;;;;;;;;;;;6.82;93.71;101036.31;21025726;28;19990;-61
2023/01/10 00:50:33;;;;;;;;;;;;;;;6.75;92.65;101050.13;21024223;28;19989;-61
2023/01/10 01:00:55;;;;;;;;;;;;;;;6.64;93.32;101075.09;21042675;28;20421;-60
2023/01/10 01:11:16;;;;;;;;;;;;;;;6.56;93.33;101102.56;21019215;28;19927;-61
2023/01/10 01:21:38;;;;;;;;;;;;;;;6.54;93.12;101127.44;21016836;28;19990;-61
2023/01/10 01:31:59;;;;;;;;;;;;;;;6.57;93.39;101148.00;21020728;28;20176;-61
2023/01/10 01:42:25;;;;;;;;;;;;;;;6.63;92.58;101175.38;20991572;28;19956;-61
2023/01/10 01:52:47;;;;;;;;;;;;;;;6.64;92.75;101195.06;20999285;28;20541;-61
2023/01/10 02:03:10;;;;;;;;;;;;;;;6.59;91.89;101213.06;21017892;28;20247;-61
2023/01/10 02:13:32;;;;;;;;;;;;;;;6.55;91.96;101214.00;21001538;28;20291;-61
2023/01/10 02:24:12;;;;;;;;;;;;;;;6.51;93.19;101234.56;21025970;28;20294;-61
2023/01/10 02:34:52;;;;;;;;;;;;;;;6.58;93.15;101237.09;21024448;28;20213;-60
2023/01/10 02:45:24;;;;;;;;;;;;;;;6.72;93.12;101250.69;21039613;28;19951;-61
2023/01/10 02:55:46;;;;;;;;;;;;;;;6.79;92.30;101257.50;21006178;28;19928;-61
2023/01/10 03:06:21;;;;;;;;;;;;;;;6.80;92.67;101269.50;21040242;28;19935;-61
2023/01/10 03:16:46;;;;;;;;;;;;;;;6.74;91.89;101274.69;21010771;28;20533;-61
2023/01/10 03:27:14;;;;;;;;;;;;;;;6.75;92.48;101294.41;21024382;28;19936;-61
2023/01/10 03:37:39;;;;;;;;;;;;;;;6.71;92.18;101302.13;21027428;28;19924;-60
2023/01/10 03:48:04;;;;;;;;;;;;;;;6.70;92.30;101323.59;21015087;28;20411;-61
2023/01/10 03:58:27;;;;;;;;;;;;;;;6.73;92.24;101350.13;21017435;28;19986;-60
2023/01/10 04:08:48;;;;;;;;;;;;;;;6.72;91.68;101358.69;21042347;28;19929;-60
2023/01/10 04:19:10;;;;;;;;;;;;;;;6.61;92.71;101381.03;21040748;28;20117;-61
2023/01/10 04:29:31;;;;;;;;;;;;;;;6.48;92.33;101392.25;21013229;28;19924;-61
2023/01/10 04:39:52;;;;;;;;;;;;;;;6.43;93.39;101391.41;21033560;28;19940;-61
2023/01/10 04:50:14;;;;;;;;;;;;;;;6.42;93.39;101415.41;21009176;28;19969;-61
2023/01/10 05:00:35;;;;;;;;;;;;;;;6.43;92.74;101427.38;21009071;28;20365;-61
2023/01/10 05:10:57;;;;;;;;;;;;;;;6.49;92.90;101436.78;21013638;28;20453;-61
2023/01/10 05:21:18;;;;;;;;;;;;;;;6.56;92.12;101452.19;21014543;28;19936;-62
2023/01/10 05:31:39;;;;;;;;;;;;;;;6.65;91.44;101475.28;21007382;28;19928;-62
2023/01/10 05:42:01;;;;;;;;;;;;;;;6.71;91.66;101489.84;21010732;28;19935;-61
2023/01/10 05:52:22;;;;;;;;;;;;;;;6.70;91.04;101508.72;21016029;28;19925;-60
2023/01/10 06:02:44;;;;;;;;;;;;;;;6.64;91.41;101514.75;21028019;28;19925;-61
2023/01/10 06:13:05;;;;;;;;;;;;;;;6.56;90.89;101537.03;21023361;28;19935;-61
2023/01/10 06:23:29;;;;;;;;;;;;;;;6.51;91.22;101551.63;21035250;28;19933;-61
2023/01/10 06:33:50;;;;;;;;;;;;;;;6.41;91.48;101562.75;21028321;28;19924;-61
2023/01/10 06:44:12;;;;;;;;;;;;;;;6.43;91.71;101576.47;21019232;28;19986;-61
2023/01/10 06:54:33;;;;;;;;;;;;;;;6.40;91.40;101576.47;21030691;28;20284;-61
2023/01/10 07:04:54;;;;;;;;;;;;;;;6.38;92.48;101579.91;21016926;28;19924;-61
2023/01/10 07:15:16;;;;;;;;;;;;;;;6.37;91.93;101591.06;21030133;28;19981;-61
2023/01/10 07:25:37;;;;;;;;;;;;;;;6.33;91.86;101600.47;21030856;28;19924;-62
2023/01/10 07:35:59;;;;;;;;;;;;;;;6.29;92.61;101619.31;21017339;28;19933;-62
2023/01/10 07:46:21;;;;;;;;;;;;;;;6.29;92.49;101628.72;21025873;28;19932;-61
2023/01/10 07:56:42;;;;;;;;;;;;;;;6.35;92.45;101601.34;21029718;28;20026;-61
2023/01/10 08:07:04;;;;;;;;;;;;;;;6.36;93.24;101618.47;21030354;28;19973;-61
2023/01/10 08:17:25;;;;;;;;;;;;;;;6.33;93.37;101631.31;21021967;28;19929;-61
2023/01/10 08:27:47;;;;;;;;;;;;;;;6.35;92.79;101678.44;21002390;28;19928;-61
2023/01/10 08:38:09;;;;;;;;;;;;;;;6.35;93.30;101691.28;21013244;28;19977;-61
2023/01/10 08:48:30;;;;;;;;;;;;;;;6.45;93.99;101682.72;21018547;28;19925;-61
2023/01/10 08:58:52;;;;;;;;;;;;;;;6.59;93.08;101693.84;21012098;28;19927;-61
2023/01/10 09:09:13;;;;;;;;;;;;;;;6.69;93.05;101708.44;20998559;28;20002;-61
2023/01/10 09:19:35;;;;;;;;;;;;;;;6.82;93.09;101705.00;21008994;28;19928;-61
2023/01/10 09:29:56;;;;;;;;;;;;;;;6.97;92.74;101715.28;21019595;28;19925;-61
2023/01/10 09:40:20;;;;;;;;;;;;;;;7.10;92.69;101726.41;21020550;28;20462;-61
2023/01/10 09:51:08;;;;;;;;;;;;;;;7.25;92.96;101746.13;21004022;28;19928;-62
2023/01/10 10:01:36;;;;;;;;;;;;;;;7.42;92.14;101749.50;21001768;28;20371;-62
2023/01/10 10:12:10;;;;;;;;;;;;;;;7.54;91.24;101764.94;21007038;28;20653;-61
2023/01/10 10:22:34;;;;;;;;;;;;;;;7.64;90.85;101776.91;21004979;28;20398;-61
2023/01/10 10:33:02;;;;;;;;;;;;;;;7.69;90.27;101757.16;20992636;28;20030;-62
2023/01/10 10:43:29;;;;;;;;;;;;;;;7.71;90.19;101758.03;21021849;28;20506;-61
2023/01/10 10:53:52;;;;;;;;;;;;;;;7.81;89.72;101755.41;21027664;28;20072;-61
2023/01/10 11:04:15;;;;;;;;;;;;;;;7.81;88.71;101755.41;21019708;28;20345;-62
2023/01/10 11:14:40;;;;;;;;;;;;;;;7.92;88.18;101748.50;21020738;28;20009;-62
2023/01/10 11:25:01;;;;;;;;;;;;;;;7.95;88.08;101732.13;21036469;28;19982;-62
2023/01/10 11:35:26;;;;;;;;;;;;;;;7.95;87.53;101742.44;21021950;28;20384;-62
2023/01/10 11:45:52;;;;;;;;;;;;;;;7.99;87.34;101726.97;21031557;28;19946;-62
2023/01/10 11:56:22;;;;;;;;;;;;;;;8.02;88.02;101726.13;21017447;28;19935;-62
2023/01/10 12:06:45;;;;;;;;;;;;;;;8.11;87.08;101726.06;21016418;28;20345;-62
2023/01/10 12:17:10;;;;;;;;;;;;;;;8.11;87.16;101728.63;21013935;28;20375;-62
2023/01/10 12:27:31;;;;;;;;;;;;;;;8.15;87.67;101733.75;21019027;28;19969;-63
2023/01/10 12:37:57;;;;;;;;;;;;;;;8.23;86.74;101713.09;21007638;28;20340;-62
2023/01/10 12:48:42;;;;;;;;;;;;;;;8.17;87.97;101707.13;21029331;22;19928;-59
2023/01/10 12:59:10;;;;;;;;;;;;;;;8.17;87.81;101700.22;21021310;28;20287;-58
2023/01/10 13:09:32;;;;;;;;;;;;;;;8.15;87.41;101683.91;21018635;28;20275;-58
2023/01/10 13:20:26;;;;;;;;;;;;;;;8.14;87.14;101682.22;21013469;28;19953;-58
2023/01/10 13:30:55;;;;;;;;;;;;;;;8.11;87.11;101667.63;21021041;28;19932;-58
2023/01/10 13:52:15;;;;;;;;;;;;;;;8.06;87.08;101646.19;21003523;28;19928;-58
2023/01/10 14:02:41;;;;;;;;;;;;;;;8.05;87.44;101653.91;20995896;28;19932;-58
2023/01/10 14:13:08;;;;;;;;;;;;;;;8.04;87.74;101649.63;21030404;28;19930;-59
2023/01/10 14:23:49;;;;;;;;;;;;;;;7.99;86.96;101657.38;21026255;28;19928;-59
2023/01/10 14:34:15;;;;;;;;;;;;;;;7.94;86.68;101632.53;21022332;28;20261;-58
2023/01/10 14:44:57;;;;;;;;;;;;;;;7.88;86.67;101620.53;21023178;28;20327;-59
2023/01/10 14:55:21;;;;;;;;;;;;;;;7.89;86.78;101613.66;21035299;28;19928;-59
2023/01/10 15:05:48;;;;;;;;;;;;;;;7.84;86.41;101592.19;21027822;28;19924;-59
2023/01/10 15:16:16;;;;;;;;;;;;;;;7.76;86.13;101581.13;21031333;28;19932;-57
2023/01/10 15:26:37;;;;;;;;;;;;;;;7.72;86.72;101564.81;21038779;28;19928;-58
2023/01/10 15:37:00;;;;;;;;;;;;;;;7.72;85.99;101545.94;21006078;28;20287;-57
2023/01/10 15:47:43;;;;;;;;;;;;;;;7.70;86.28;101521.91;21029963;28;20332;-58
2023/01/10 15:58:21;;;;;;;;;;;;;;;7.71;85.71;101521.06;21023528;28;20322;-58
2023/01/10 16:08:46;;;;;;;;;;;;;;;7.67;85.51;101504.75;21021476;28;20240;-58
2023/01/10 16:19:08;;;;;;;;;;;;;;;7.63;85.04;101477.31;21012409;28;20056;-57
2023/01/10 16:29:29;;;;;;;;;;;;;;;7.70;85.10;101472.97;21011815;28;19970;-57
2023/01/10 16:39:50;;;;;;;;;;;;;;;7.76;84.71;101444.59;21004778;28;19955;-58
2023/01/10 16:50:12;;;;;;;;;;;;;;;7.75;84.84;101442.88;21005866;28;19951;-58
2023/01/10 17:00:33;;;;;;;;;;;;;;;7.81;84.21;101430.81;21015125;28;19924;-58
2023/01/10 17:11:03;;;;;;;;;;;;;;;7.71;86.11;101415.44;21014201;28;19970;-60
2023/01/10 17:21:27;;;;;;;;;;;;;;;7.60;87.69;101404.38;21016618;28;20030;-58
2023/01/10 17:31:50;;;;;;;;;;;;;;;7.53;88.95;101392.41;21030932;28;20392;-57
2023/01/10 17:42:11;;;;;;;;;;;;;;;7.47;90.09;101377.03;21014462;28;20001;-57
2023/01/10 17:52:33;;;;;;;;;;;;;;;7.47;89.22;101364.16;21005087;28;19929;-58
2023/01/10 18:02:54;;;;;;;;;;;;;;;7.41;90.12;101336.75;21028188;28;19924;-57
2023/01/10 18:13:17;;;;;;;;;;;;;;;7.41;90.15;101310.16;21038473;28;19990;-57
2023/01/10 18:23:38;;;;;;;;;;;;;;;7.41;89.75;101289.56;21040963;28;19970;-57
2023/01/10 18:34:00;;;;;;;;;;;;;;;7.39;89.12;101286.13;21016040;28;19932;-58
2023/01/10 18:44:21;;;;;;;;;;;;;;;7.37;88.97;101242.41;21036582;28;19932;-57
2023/01/10 18:54:43;;;;;;;;;;;;;;;7.29;89.83;101207.31;21125713;22;19927;-61
2023/01/10 19:05:08;;;;;;;;;;;;;;;7.24;89.98;101183.34;21133060;27;19924;-60
2023/01/10 19:15:29;;;;;;;;;;;;;;;7.16;91.53;101175.69;21148223;27;19932;-61
2023/01/10 19:25:54;;;;;;;;;;;;;;;7.04;92.47;101165.53;21156213;27;19924;-61
2023/01/10 19:36:16;;;;;;;;;;;;;;;6.98;92.65;101152.72;21147119;27;20553;-61
2023/01/10 19:46:39;;;;;;;;;;;;;;;6.88;93.28;101121.13;21170463;27;19945;-61
2023/01/10 19:57:01;;;;;;;;;;;;;;;6.84;92.90;101106.59;21168508;27;20430;-61
2023/01/10 20:07:22;;;;;;;;;;;;;;;6.82;94.98;101085.19;21159344;27;19964;-62
2023/01/10 20:17:44;;;;;;;;;;;;;;;6.82;94.86;101051.75;21148993;27;19924;-61
2023/01/10 20:28:05;;;;;;;;;;;;;;;6.80;96.32;101030.34;21163939;27;20442;-61
2023/01/10 20:38:27;;;;;;;;;;;;;;;6.82;96.44;101031.19;21141404;27;20388;-61
2023/01/10 20:48:49;;;;;;;;;;;;;;;6.87;97.02;101019.09;21156926;27;19985;-61
2023/01/10 20:59:11;;;;;;;;;;;;;;;6.87;98.23;100988.25;21148773;27;19980;-61
2023/01/10 21:09:32;;;;;;;;;;;;;;;6.94;96.45;100969.28;21151987;27;19923;-62
2023/01/10 21:19:53;;;;;;;;;;;;;;;6.95;97.25;100955.56;21131300;27;19942;-61
2023/01/10 21:30:17;;;;;;;;;;;;;;;7.03;97.44;100948.59;21128852;27;19946;-61
2023/01/10 21:40:38;;;;;;;;;;;;;;;7.06;97.50;100927.97;21155963;28;19989;-61
2023/01/10 21:51:00;;;;;;;;;;;;;;;7.09;98.30;100907.34;21153171;27;20053;-61
2023/01/10 22:01:21;;;;;;;;;;;;;;;7.21;96.38;100898.59;21143031;28;20352;-61
2023/01/10 22:11:43;;;;;;;;;;;;;;;7.22;97.26;100884.00;21137161;28;19969;-60
2023/01/10 22:22:04;;;;;;;;;;;;;;;7.33;96.92;100861.50;21175960;28;19939;-60
2023/01/10 22:32:26;;;;;;;;;;;;;;;7.40;96.10;100848.53;21148301;28;20062;-60
2023/01/10 22:42:51;;;;;;;;;;;;;;;7.44;96.91;100826.16;21171343;27;19931;-61
2023/01/10 22:53:12;;;;;;;;;;;;;;;7.57;96.63;100801.88;21171858;27;20007;-61
2023/01/10 23:03:34;;;;;;;;;;;;;;;7.64;96.28;100804.31;21161660;27;20446;-61
2023/01/10 23:13:55;;;;;;;;;;;;;;;7.64;96.96;100799.16;21155485;27;20018;-60
2023/01/10 23:24:17;;;;;;;;;;;;;;;7.72;97.13;100786.16;21167378;27;19932;-60
2023/01/10 23:34:38;;;;;;;;;;;;;;;7.81;97.37;100771.38;21170991;27;20446;-61
2023/01/10 23:44:59;;;;;;;;;;;;;;;7.89;97.67;100753.19;21145393;27;19981;-60
2023/01/10 23:55:21;;;;;;;;;;;;;;;7.94;97.72;100759.09;21160381;27;20432;-60
